Time;durP1;ratioP1;P1;durP2;ratioP2;P2;SDS_P1;SDS_P2;PMS_P1;PMS_P2;Temp;Humidity;BMP_temperature;BMP_pressure;BME280_temperature;BME280_humidity;BME280_pressure;Samples;Min_cycle;Max_cycle;Signal;HPM_P1;HPM_P2
2023/02/22 00:00:21;;;;;;;135.47;26.43;;;7.30;99.90;;;;;;5075043;28;20506;-79
2023/02/22 00:02:50;;;;;;;113.57;24.40;;;7.50;99.90;;;;;;5075095;28;20172;-79
2023/02/22 00:05:18;;;;;;;85.57;23.07;;;7.50;99.90;;;;;;5075225;28;20503;-79
2023/02/22 00:07:48;;;;;;;62.10;22.67;;;7.50;99.90;;;;;;5074723;28;20261;-78
2023/02/22 00:10:19;;;;;;;71.50;21.47;;;7.50;99.90;;;;;;5074776;28;20704;-79
2023/02/22 00:12:47;;;;;;;53.70;22.23;;;7.50;99.90;;;;;;5092382;28;20617;-78
2023/02/22 00:15:14;;;;;;;103.20;23.50;;;7.50;99.90;;;;;;5092823;28;20144;-78
2023/02/22 00:17:43;;;;;;;51.87;23.17;;;7.50;99.90;;;;;;5092390;28;20263;-79
2023/02/22 00:20:13;;;;;;;55.60;22.90;;;7.40;99.90;;;;;;5074730;28;20199;-78
2023/02/22 00:22:45;;;;;;;182.40;25.37;;;7.40;99.90;;;;;;5093057;28;20165;-78
2023/02/22 00:25:13;;;;;;;77.50;22.30;;;7.50;99.90;;;;;;5072473;28;20192;-78
2023/02/22 00:27:40;;;;;;;61.80;22.20;;;7.50;99.90;;;;;;5072602;28;20656;-77
2023/02/22 00:30:08;;;;;;;68.80;21.93;;;7.50;99.90;;;;;;5072199;28;20217;-79
2023/02/22 00:32:34;;;;;;;77.53;21.90;;;7.50;99.90;;;;;;5074123;28;20173;-78
2023/02/22 00:35:00;;;;;;;52.67;20.67;;;7.50;99.90;;;;;;5092614;28;20180;-77
2023/02/22 00:37:30;;;;;;;77.13;21.63;;;7.50;99.90;;;;;;5095737;28;20225;-78
2023/02/22 00:39:57;;;;;;;61.07;22.73;;;7.40;99.90;;;;;;5096650;28;20160;-78
2023/02/22 00:42:22;;;;;;;53.63;20.63;;;7.40;99.90;;;;;;5096345;28;20174;-78
2023/02/22 00:44:48;;;;;;;69.80;21.67;;;7.30;99.90;;;;;;5078593;28;20171;-78
2023/02/22 00:47:13;;;;;;;73.77;23.03;;;7.30;99.90;;;;;;5096838;28;20179;-78
2023/02/22 00:49:39;;;;;;;52.13;21.53;;;7.30;99.90;;;;;;5096545;28;20181;-78
2023/02/22 00:52:05;;;;;;;63.63;21.63;;;7.40;99.90;;;;;;5096611;28;20205;-79
2023/02/22 00:54:30;;;;;;;82.13;21.57;;;7.40;99.90;;;;;;5078739;28;20553;-79
2023/02/22 00:56:57;;;;;;;53.40;21.37;;;7.40;99.90;;;;;;5096814;28;20537;-79
2023/02/22 00:59:23;;;;;;;74.93;22.10;;;7.40;99.90;;;;;;5096705;28;20523;-79
2023/02/22 01:01:49;;;;;;;55.53;20.97;;;7.30;99.90;;;;;;5096398;28;20157;-77
2023/02/22 01:04:15;;;;;;;88.07;21.87;;;7.30;99.90;;;;;;5096812;28;20208;-79
2023/02/22 01:06:40;;;;;;;74.60;21.30;;;7.30;99.90;;;;;;5096319;28;20531;-78
2023/02/22 01:09:09;;;;;;;52.50;20.20;;;7.20;99.90;;;;;;5095890;28;20206;-78
2023/02/22 01:11:35;;;;;;;53.50;19.43;;;7.20;99.90;;;;;;5096184;28;20527;-77
2023/02/22 01:14:00;;;;;;;59.47;20.30;;;7.30;99.90;;;;;;5095944;28;20169;-78
2023/02/22 01:16:26;;;;;;;114.90;22.23;;;7.30;99.90;;;;;;5078029;28;20168;-78
2023/02/22 01:18:52;;;;;;;117.90;23.10;;;7.30;99.90;;;;;;5096214;28;20557;-79
2023/02/22 01:21:18;;;;;;;79.77;22.33;;;7.20;99.90;;;;;;5096201;28;20633;-77
2023/02/22 01:23:47;;;;;;;49.63;19.60;;;7.20;99.90;;;;;;5095467;28;20183;-78
2023/02/22 01:26:13;;;;;;;72.43;20.57;;;7.20;99.90;;;;;;5077585;28;20589;-78
2023/02/22 01:28:38;;;;;;;60.87;20.57;;;7.20;99.90;;;;;;5076689;28;20266;-78
2023/02/22 01:31:05;;;;;;;68.03;20.93;;;7.20;99.90;;;;;;5077825;28;20533;-77
2023/02/22 01:33:31;;;;;;;72.90;20.80;;;7.00;99.90;;;;;;5095823;28;20232;-78
2023/02/22 01:35:57;;;;;;;49.73;20.13;;;7.10;99.90;;;;;;5077782;28;20210;-83
2023/02/22 01:38:22;;;;;;;40.10;18.97;;;7.10;99.90;;;;;;5095381;28;20260;-78
2023/02/22 01:40:49;;;;;;;41.97;18.47;;;7.10;99.90;;;;;;5095365;28;20217;-77
2023/02/22 01:43:28;;;;;;;48.00;18.60;;;7.20;99.90;;;;;;5095775;28;20221;-77
2023/02/22 01:46:22;;;;;;;45.07;18.27;;;7.10;99.90;;;;;;5095862;28;20558;-78
2023/02/22 01:49:00;;;;;;;45.87;17.73;;;7.20;99.90;;;;;;5075889;28;20651;-78
2023/02/22 01:51:38;;;;;;;55.00;19.73;;;7.10;99.90;;;;;;5073574;28;20212;-77
2023/02/22 01:54:22;;;;;;;47.40;20.77;;;7.20;99.90;;;;;;5076624;28;20176;-78
2023/02/22 01:57:25;;;;;;;46.67;20.57;;;7.20;99.90;;;;;;5095016;28;20640;-77
2023/02/22 02:00:00;;;;;;;41.97;17.77;;;7.10;99.90;;;;;;5042957;28;20192;-77
2023/02/22 02:02:26;;;;;;;32.10;17.80;;;7.00;99.90;;;;;;5095356;28;20164;-78
2023/02/22 02:04:55;;;;;;;31.30;16.87;;;6.90;99.90;;;;;;5076691;28;20208;-77
2023/02/22 02:07:22;;;;;;;29.37;16.27;;;7.10;99.90;;;;;;5095376;28;20162;-77
2023/02/22 02:10:00;;;;;;;31.53;17.17;;;7.10;99.90;;;;;;5075819;28;20204;-78
2023/02/22 02:12:34;;;;;;;30.70;16.27;;;7.20;99.90;;;;;;5094880;28;20162;-78
2023/02/22 02:15:27;;;;;;;31.73;16.83;;;7.00;99.90;;;;;;5095322;28;20193;-78
2023/02/22 02:17:56;;;;;;;32.00;16.60;;;6.90;99.90;;;;;;5076962;28;20196;-77
2023/02/22 02:20:34;;;;;;;28.47;16.00;;;6.80;99.90;;;;;;5094339;28;20173;-78
2023/02/22 02:23:31;;;;;;;27.50;16.63;;;6.90;99.90;;;;;;5094771;28;20473;-78
2023/02/22 02:26:33;;;;;;;26.73;15.93;;;6.90;99.90;;;;;;5059786;28;20179;-76
2023/02/22 02:29:43;;;;;;;30.83;15.37;;;6.90;99.90;;;;;;5094480;28;20692;-77
2023/02/22 02:32:42;;;;;;;26.53;15.67;;;6.90;99.90;;;;;;4976257;28;20201;-78
2023/02/22 02:35:28;;;;;;;24.53;14.37;;;6.80;99.90;;;;;;4976441;28;20191;-78
2023/02/22 02:38:09;;;;;;;23.63;14.77;;;6.80;99.90;;;;;;5064893;28;20186;-77
2023/02/22 02:40:48;;;;;;;24.23;15.13;;;6.80;99.90;;;;;;5093970;28;20622;-78
2023/02/22 02:43:30;;;;;;;25.20;14.67;;;6.70;99.90;;;;;;5094437;28;20189;-77
2023/02/22 02:46:12;;;;;;;26.87;15.27;;;6.70;99.90;;;;;;5094226;28;20164;-77
2023/02/22 02:48:44;;;;;;;23.53;14.20;;;6.60;99.90;;;;;;5093791;28;20198;-77
2023/02/22 02:51:13;;;;;;;25.03;14.93;;;6.40;99.90;;;;;;5076120;28;20261;-76
2023/02/22 02:53:43;;;;;;;23.33;14.07;;;6.50;99.90;;;;;;5076100;28;20600;-78
2023/02/22 02:56:09;;;;;;;24.60;14.57;;;6.40;99.90;;;;;;5093944;28;20148;-77
2023/02/22 02:58:51;;;;;;;25.00;14.70;;;6.40;99.90;;;;;;5093475;28;20170;-77
2023/02/22 03:01:52;;;;;;;25.10;14.97;;;6.40;99.90;;;;;;5094417;28;20693;-78
2023/02/22 03:04:26;;;;;;;27.93;15.20;;;6.40;99.90;;;;;;5093851;28;20539;-76
2023/02/22 03:07:23;;;;;;;26.93;15.27;;;6.50;99.90;;;;;;5093746;28;20244;-77
2023/02/22 03:10:01;;;;;;;26.60;15.83;;;6.50;99.90;;;;;;5093391;28;20198;-78
2023/02/22 03:12:42;;;;;;;27.37;15.20;;;6.50;99.90;;;;;;5075398;28;20173;-77
2023/02/22 03:15:38;;;;;;;27.77;15.97;;;6.50;99.90;;;;;;5075572;28;20220;-77
2023/02/22 03:18:08;;;;;;;26.57;15.33;;;6.60;99.90;;;;;;5093438;28;20539;-77
2023/02/22 03:20:51;;;;;;;25.43;14.57;;;6.40;99.90;;;;;;5093900;28;20514;-77
2023/02/22 03:23:32;;;;;;;24.50;15.07;;;6.40;99.90;;;;;;5093823;28;20678;-77
2023/02/22 03:26:07;;;;;;;25.13;15.97;;;6.30;99.90;;;;;;5093735;28;20648;-77
2023/02/22 03:28:34;;;;;;;27.67;16.13;;;6.30;99.90;;;;;;5093197;28;20656;-77
2023/02/22 03:31:29;;;;;;;25.27;14.80;;;6.30;99.90;;;;;;5075135;28;20185;-76
2023/02/22 03:34:10;;;;;;;26.53;15.83;;;6.40;99.90;;;;;;5075474;28;20232;-77
2023/02/22 03:36:43;;;;;;;26.90;15.10;;;6.30;99.90;;;;;;5075489;28;20677;-77
2023/02/22 03:39:14;;;;;;;26.20;14.63;;;6.40;99.90;;;;;;5075066;28;20183;-77
2023/02/22 03:41:47;;;;;;;26.57;15.40;;;6.40;99.90;;;;;;5093095;28;20616;-76
2023/02/22 03:44:18;;;;;;;25.43;14.97;;;6.30;99.90;;;;;;5075401;28;20198;-78
2023/02/22 03:46:46;;;;;;;25.90;15.10;;;6.30;99.90;;;;;;5092701;28;20202;-77
2023/02/22 03:49:52;;;;;;;25.43;14.90;;;6.30;99.90;;;;;;5074894;28;20192;-77
2023/02/22 03:52:22;;;;;;;25.23;15.23;;;6.30;99.90;;;;;;5092999;28;20162;-78
2023/02/22 03:54:52;;;;;;;24.27;14.93;;;6.20;99.90;;;;;;5092719;28;20587;-78
2023/02/22 03:57:37;;;;;;;21.50;14.40;;;6.20;99.90;;;;;;5074226;28;20519;-80
2023/02/22 04:00:06;;;;;;;25.17;14.63;;;6.20;99.90;;;;;;5092721;28;20554;-79
2023/02/22 04:02:32;;;;;;;24.27;14.60;;;6.20;99.90;;;;;;5074258;28;20244;-80
2023/02/22 04:04:59;;;;;;;27.43;15.60;;;6.20;99.90;;;;;;5092614;28;20163;-80
2023/02/22 04:07:25;;;;;;;25.50;14.10;;;6.20;99.90;;;;;;5073988;28;20225;-80
2023/02/22 04:09:50;;;;;;;27.87;14.37;;;6.30;99.90;;;;;;5074332;28;20205;-79
2023/02/22 04:12:16;;;;;;;25.07;15.30;;;6.30;99.90;;;;;;5073656;28;20160;-79
2023/02/22 04:14:43;;;;;;;22.53;13.97;;;6.30;99.90;;;;;;5092607;28;20555;-80
2023/02/22 04:17:09;;;;;;;25.17;15.27;;;6.40;99.90;;;;;;5074119;28;20178;-79
2023/02/22 04:19:35;;;;;;;21.53;13.90;;;6.40;99.90;;;;;;5092726;28;20171;-79
2023/02/22 04:22:01;;;;;;;26.50;14.73;;;6.30;99.90;;;;;;5074018;28;20266;-80
2023/02/22 04:24:27;;;;;;;23.80;13.73;;;6.30;99.90;;;;;;5074100;28;20637;-81
2023/02/22 04:26:54;;;;;;;21.63;12.90;;;6.20;99.90;;;;;;5074211;28;20178;-79
2023/02/22 04:29:21;;;;;;;24.43;13.67;;;6.30;99.90;;;;;;5054096;28;20208;-79
2023/02/22 04:31:47;;;;;;;24.50;13.27;;;6.30;99.90;;;;;;5072323;28;20174;-79
2023/02/22 04:34:13;;;;;;;21.70;13.20;;;6.30;99.90;;;;;;5072213;28;20162;-80
2023/02/22 04:36:43;;;;;;;21.40;13.00;;;6.50;99.90;;;;;;5072197;28;20617;-79
2023/02/22 04:39:08;;;;;;;21.73;13.27;;;6.40;99.90;;;;;;5090094;28;20174;-79
2023/02/22 04:41:34;;;;;;;21.47;13.53;;;6.40;99.90;;;;;;5092243;28;20170;-79
2023/02/22 04:44:00;;;;;;;20.80;12.73;;;6.60;99.90;;;;;;5092332;28;20297;-79
2023/02/22 04:46:27;;;;;;;21.10;13.13;;;6.40;99.90;;;;;;5074135;28;20304;-79
2023/02/22 04:48:54;;;;;;;20.23;12.47;;;6.40;99.90;;;;;;5092071;28;20182;-79
2023/02/22 04:51:19;;;;;;;21.63;13.37;;;6.20;99.90;;;;;;5074128;28;20632;-79
2023/02/22 04:53:45;;;;;;;20.27;12.67;;;6.30;99.90;;;;;;5073812;28;20168;-79
2023/02/22 04:56:11;;;;;;;18.90;12.20;;;6.40;99.90;;;;;;5091963;28;20246;-79
2023/02/22 04:58:36;;;;;;;17.23;11.97;;;6.40;99.90;;;;;;5073492;28;20174;-78
2023/02/22 05:01:02;;;;;;;18.30;11.70;;;6.40;99.90;;;;;;5092180;28;20637;-80
2023/02/22 05:03:28;;;;;;;21.20;12.27;;;6.30;99.90;;;;;;5074100;28;20618;-79
2023/02/22 05:05:53;;;;;;;15.77;10.77;;;6.30;99.90;;;;;;5073594;28;20178;-81
2023/02/22 05:08:19;;;;;;;17.20;10.43;;;6.30;99.90;;;;;;5091987;28;20199;-79
2023/02/22 05:10:45;;;;;;;16.00;10.87;;;6.10;99.90;;;;;;5074089;28;20593;-80
2023/02/22 05:13:10;;;;;;;15.50;10.07;;;6.10;99.90;;;;;;5092183;28;20162;-77
2023/02/22 05:15:38;;;;;;;16.37;10.80;;;6.20;99.90;;;;;;5091742;28;20640;-78
2023/02/22 05:18:04;;;;;;;15.13;10.60;;;6.20;99.90;;;;;;5092209;28;20165;-78
2023/02/22 05:20:32;;;;;;;16.27;10.40;;;6.30;99.90;;;;;;5073788;28;20179;-79
2023/02/22 05:23:00;;;;;;;16.30;10.90;;;6.30;99.90;;;;;;5076498;28;20723;-80
2023/02/22 05:25:28;;;;;;;16.77;10.37;;;6.30;99.90;;;;;;5077828;28;20184;-79
2023/02/22 05:27:58;;;;;;;13.97;10.37;;;6.30;99.90;;;;;;5095771;28;20163;-79
2023/02/22 05:30:34;;;;;;;15.23;9.67;;;6.20;99.90;;;;;;5078029;28;20171;-80
2023/02/22 05:33:02;;;;;;;16.13;10.50;;;6.10;99.90;;;;;;5096285;28;20263;-80
2023/02/22 05:35:31;;;;;;;16.17;10.40;;;6.10;99.90;;;;;;5096220;28;20238;-79
2023/02/22 05:37:58;;;;;;;15.50;10.10;;;6.10;99.90;;;;;;5096244;28;20165;-79
2023/02/22 05:40:26;;;;;;;15.03;10.43;;;6.20;99.90;;;;;;5077779;28;20164;-79
2023/02/22 05:42:53;;;;;;;14.13;10.07;;;6.30;99.90;;;;;;5096251;28;20692;-79
2023/02/22 05:45:27;;;;;;;14.73;10.50;;;6.30;99.90;;;;;;5077720;28;20278;-79
2023/02/22 05:47:57;;;;;;;15.53;9.97;;;6.30;99.90;;;;;;5077749;28;20167;-80
2023/02/22 05:50:23;;;;;;;15.83;10.07;;;6.30;99.90;;;;;;5077595;28;20206;-78
2023/02/22 05:52:59;;;;;;;14.70;9.63;;;6.30;99.90;;;;;;5077496;28;20647;-79
2023/02/22 05:55:27;;;;;;;12.60;9.53;;;6.40;99.90;;;;;;5095650;28;20194;-78
2023/02/22 05:58:00;;;;;;;13.27;9.93;;;6.40;99.90;;;;;;5095689;28;20170;-79
2023/02/22 06:00:30;;;;;;;14.93;10.00;;;6.50;99.90;;;;;;5077470;28;20183;-80
2023/02/22 06:03:03;;;;;;;16.20;10.70;;;6.50;99.90;;;;;;5095417;28;20633;-80
2023/02/22 06:05:32;;;;;;;19.63;10.30;;;6.40;99.90;;;;;;5077649;28;20189;-79
2023/02/22 06:07:59;;;;;;;16.27;10.13;;;6.40;99.90;;;;;;5095671;28;20238;-78
2023/02/22 06:10:26;;;;;;;13.10;9.73;;;6.40;99.90;;;;;;5077440;28;20278;-77
2023/02/22 06:13:03;;;;;;;13.87;9.60;;;6.30;99.90;;;;;;5077252;28;20167;-78
2023/02/22 06:15:36;;;;;;;14.33;9.70;;;6.20;99.90;;;;;;5095522;28;20155;-78
2023/02/22 06:18:15;;;;;;;13.80;10.20;;;6.20;99.90;;;;;;5076947;28;20580;-78
2023/02/22 06:20:43;;;;;;;13.57;10.03;;;6.20;99.90;;;;;;5095549;28;20623;-78
2023/02/22 06:23:12;;;;;;;14.63;9.63;;;6.30;99.90;;;;;;5095227;28;20175;-81
2023/02/22 06:26:00;;;;;;;13.57;10.00;;;6.20;99.90;;;;;;5095385;28;20156;-80
2023/02/22 06:28:26;;;;;;;15.90;10.33;;;6.30;99.90;;;;;;5095535;28;20284;-79
2023/02/22 06:31:05;;;;;;;16.50;10.73;;;6.20;99.90;;;;;;5095615;28;20148;-78
2023/02/22 06:33:33;;;;;;;15.60;10.27;;;6.20;99.90;;;;;;5076526;28;20205;-79
2023/02/22 06:36:02;;;;;;;18.40;10.97;;;6.30;99.90;;;;;;5095623;28;20625;-79
2023/02/22 06:38:30;;;;;;;14.70;9.53;;;6.30;99.90;;;;;;5077235;28;20266;-79
2023/02/22 06:41:14;;;;;;;15.57;10.33;;;6.40;99.90;;;;;;5095084;28;20174;-81
2023/02/22 06:43:43;;;;;;;14.20;9.80;;;6.40;99.90;;;;;;5077446;28;20269;-78
2023/02/22 06:46:11;;;;;;;15.30;10.00;;;6.30;99.90;;;;;;5077320;28;20168;-79
2023/02/22 06:48:41;;;;;;;15.60;9.77;;;6.30;99.90;;;;;;5076563;28;20842;-79
2023/02/22 06:51:09;;;;;;;14.67;9.97;;;6.30;99.90;;;;;;5095510;28;20515;-78
2023/02/22 06:53:35;;;;;;;14.67;10.40;;;6.30;99.90;;;;;;5095213;28;20155;-77
2023/02/22 06:56:06;;;;;;;15.33;9.70;;;6.40;99.90;;;;;;5094795;28;20605;-75
2023/02/22 06:58:35;;;;;;;15.47;10.40;;;6.40;99.90;;;;;;5076341;28;20164;-77
2023/02/22 07:01:02;;;;;;;13.07;9.60;;;6.50;99.90;;;;;;5094827;28;20589;-74
2023/02/22 07:03:29;;;;;;;18.33;9.83;;;6.40;99.90;;;;;;5076423;28;20595;-73
2023/02/22 07:05:54;;;;;;;18.73;10.50;;;6.60;99.90;;;;;;5076088;28;20191;-74
2023/02/22 07:08:20;;;;;;;17.93;10.53;;;6.50;99.90;;;;;;5093182;28;20285;-75
2023/02/22 07:10:47;;;;;;;16.33;10.23;;;6.40;99.90;;;;;;5093981;28;20220;-74
2023/02/22 07:13:14;;;;;;;14.87;9.70;;;6.50;99.90;;;;;;5093588;28;20228;-74
2023/02/22 07:15:40;;;;;;;16.03;9.93;;;6.50;99.90;;;;;;5093429;28;20160;-73
2023/02/22 07:18:06;;;;;;;14.90;9.90;;;6.50;99.90;;;;;;5093338;28;20166;-75
2023/02/22 07:20:32;;;;;;;14.23;9.93;;;6.50;99.90;;;;;;5074667;28;20176;-74
2023/02/22 07:22:59;;;;;;;13.77;9.43;;;6.60;99.90;;;;;;5075439;28;20171;-74
2023/02/22 07:25:25;;;;;;;15.87;9.20;;;6.90;99.90;;;;;;5093809;28;20163;-76
2023/02/22 07:27:51;;;;;;;14.77;8.53;;;6.90;99.90;;;;;;5092860;28;20162;-76
2023/02/22 07:30:25;;;;;;;16.40;9.20;;;6.90;99.90;;;;;;5074856;28;20191;-76
2023/02/22 07:32:52;;;;;;;13.67;8.83;;;7.00;99.90;;;;;;5075087;28;20162;-75
2023/02/22 07:35:27;;;;;;;13.87;9.07;;;7.10;99.90;;;;;;5093333;28;20170;-76
2023/02/22 07:37:53;;;;;;;14.90;9.80;;;7.20;99.90;;;;;;5093297;28;20168;-75
2023/02/22 07:40:19;;;;;;;18.50;9.77;;;7.40;99.90;;;;;;5093053;28;20211;-76
2023/02/22 07:42:55;;;;;;;13.00;9.37;;;7.40;99.90;;;;;;5093485;28;20633;-75
2023/02/22 07:45:23;;;;;;;13.93;9.17;;;7.60;99.90;;;;;;5092578;28;20567;-75
2023/02/22 07:47:49;;;;;;;15.30;9.70;;;7.70;99.90;;;;;;5090065;28;20238;-76
2023/02/22 07:50:16;;;;;;;16.93;9.50;;;7.80;99.90;;;;;;5091965;28;20613;-75
2023/02/22 07:52:47;;;;;;;14.67;9.83;;;7.90;99.90;;;;;;5093360;28;20160;-76
2023/02/22 07:55:15;;;;;;;17.67;9.37;;;7.90;99.90;;;;;;5085783;28;20151;-76
2023/02/22 07:57:44;;;;;;;16.10;9.13;;;8.00;99.90;;;;;;5078960;28;20525;-75
2023/02/22 08:00:13;;;;;;;16.17;9.63;;;8.10;99.90;;;;;;5072630;28;20182;-75
2023/02/22 08:02:43;;;;;;;15.80;9.37;;;8.30;99.90;;;;;;5071951;28;20179;-76
2023/02/22 08:05:11;;;;;;;12.60;8.67;;;8.40;99.90;;;;;;5078687;28;20240;-76
2023/02/22 08:07:42;;;;;;;19.77;9.33;;;8.60;99.90;;;;;;5073365;28;20170;-76
2023/02/22 08:10:09;;;;;;;16.07;9.00;;;8.70;99.90;;;;;;5092003;28;20243;-75
2023/02/22 08:12:37;;;;;;;14.67;9.30;;;8.80;99.90;;;;;;5092896;28;20151;-75
2023/02/22 08:15:13;;;;;;;15.97;9.10;;;8.90;99.90;;;;;;5072440;28;20216;-76
2023/02/22 08:17:39;;;;;;;16.33;10.13;;;9.00;99.90;;;;;;5072185;28;20161;-75
2023/02/22 08:20:07;;;;;;;16.67;9.00;;;9.20;99.90;;;;;;5072430;28;20234;-75
2023/02/22 08:22:33;;;;;;;13.83;9.37;;;9.20;99.90;;;;;;5088404;28;20223;-76
2023/02/22 08:24:58;;;;;;;14.07;9.00;;;9.30;99.90;;;;;;5092709;28;20203;-75
2023/02/22 08:27:26;;;;;;;16.73;9.13;;;9.40;99.90;;;;;;5070225;28;20234;-76
2023/02/22 08:29:53;;;;;;;15.70;9.00;;;9.40;99.90;;;;;;5070789;28;20203;-76
2023/02/22 08:32:21;;;;;;;17.23;8.77;;;9.50;99.90;;;;;;5080655;28;20197;-76
2023/02/22 08:34:47;;;;;;;14.00;9.00;;;9.60;99.90;;;;;;5092723;28;20182;-76
2023/02/22 08:37:15;;;;;;;17.23;9.00;;;9.80;99.90;;;;;;5089426;28;20639;-75
2023/02/22 08:39:41;;;;;;;13.50;8.93;;;10.10;99.90;;;;;;5072439;28;20162;-75
2023/02/22 08:42:08;;;;;;;16.37;9.27;;;10.20;99.90;;;;;;5078154;28;20715;-75
2023/02/22 08:44:38;;;;;;;15.97;9.00;;;10.30;99.90;;;;;;5092595;28;20523;-75
2023/02/22 08:47:04;;;;;;;12.87;9.07;;;10.40;99.90;;;;;;5087128;28;20532;-76
2023/02/22 08:49:36;;;;;;;17.80;9.03;;;10.70;99.90;;;;;;5073829;28;20282;-76
2023/02/22 08:52:03;;;;;;;14.80;8.93;;;10.40;99.90;;;;;;5092496;28;20163;-75
2023/02/22 08:54:28;;;;;;;13.57;8.53;;;10.40;99.90;;;;;;5090553;28;20153;-75
2023/02/22 08:56:55;;;;;;;13.20;9.10;;;10.30;99.90;;;;;;5054793;28;20257;-76
2023/02/22 08:59:27;;;;;;;15.33;9.47;;;10.50;99.90;;;;;;5096388;28;20170;-75
2023/02/22 09:01:55;;;;;;;12.27;8.87;;;10.50;99.90;;;;;;5096619;28;20208;-76
2023/02/22 09:04:21;;;;;;;15.57;8.20;;;10.50;99.90;;;;;;5095367;28;20224;-75
2023/02/22 09:06:50;;;;;;;15.83;8.37;;;10.60;99.90;;;;;;5096327;28;20611;-76
2023/02/22 09:09:19;;;;;;;13.87;9.43;;;10.60;99.90;;;;;;5094982;28;20689;-75
2023/02/22 09:11:46;;;;;;;14.10;9.60;;;10.70;99.90;;;;;;5078575;28;20163;-76
2023/02/22 09:14:13;;;;;;;15.63;10.63;;;10.30;99.90;;;;;;5095303;28;20166;-75
2023/02/22 09:16:39;;;;;;;17.30;9.93;;;9.90;99.90;;;;;;5078141;28;20173;-76
2023/02/22 09:19:05;;;;;;;17.10;9.33;;;10.00;99.90;;;;;;5093890;28;20167;-76
2023/02/22 09:21:31;;;;;;;14.83;10.83;;;9.90;99.90;;;;;;5096237;28;20560;-76
2023/02/22 09:23:57;;;;;;;17.83;9.57;;;10.10;99.90;;;;;;5095775;28;20158;-79
2023/02/22 09:26:23;;;;;;;17.20;10.53;;;10.10;99.90;;;;;;5077622;28;20171;-79
2023/02/22 09:28:50;;;;;;;17.20;10.63;;;10.30;99.90;;;;;;5076716;28;20235;-78
2023/02/22 09:31:18;;;;;;;19.70;10.90;;;10.40;99.90;;;;;;5075748;28;20171;-78
2023/02/22 09:33:44;;;;;;;16.27;11.00;;;10.40;99.90;;;;;;5074406;28;20164;-79
2023/02/22 09:36:13;;;;;;;17.03;11.13;;;10.40;99.90;;;;;;5077011;28;20632;-79
2023/02/22 09:38:40;;;;;;;19.80;11.63;;;10.40;99.90;;;;;;5081421;28;20161;-78
2023/02/22 09:41:31;;;;;;;21.53;11.07;;;10.40;99.90;;;;;;5075729;28;20163;-78
2023/02/22 09:44:22;;;;;;;17.83;11.83;;;10.60;99.90;;;;;;5057847;28;20256;-78
2023/02/22 09:46:49;;;;;;;17.63;11.50;;;10.70;99.90;;;;;;5075083;28;20152;-76
2023/02/22 09:50:14;;;;;;;17.87;11.50;;;10.90;99.90;;;;;;5073023;28;20245;-78
2023/02/22 09:52:57;;;;;;;17.63;11.47;;;10.90;99.90;;;;;;5074335;28;20164;-75
2023/02/22 09:55:46;;;;;;;19.57;12.27;;;10.80;99.90;;;;;;5077144;28;20162;-79
2023/02/22 09:58:41;;;;;;;19.33;11.67;;;10.70;99.90;;;;;;5072420;28;20167;-78
2023/02/22 10:01:38;;;;;;;19.23;11.60;;;10.70;99.90;;;;;;5075152;28;20175;-78
2023/02/22 10:04:40;;;;;;;15.73;11.23;;;10.80;99.90;;;;;;5074611;28;20167;-79
2023/02/22 10:07:19;;;;;;;21.73;12.53;;;11.20;99.90;;;;;;5090827;28;20194;-79
2023/02/22 10:09:47;;;;;;;19.63;12.47;;;11.40;99.90;;;;;;5055985;28;20256;-78
2023/02/22 10:12:46;;;;;;;17.83;11.43;;;11.60;99.90;;;;;;5057100;28;20175;-78
2023/02/22 10:15:21;;;;;;;24.43;13.33;;;11.10;99.90;;;;;;5075243;28;20152;-77
2023/02/22 10:18:11;;;;;;;21.30;12.23;;;11.10;99.90;;;;;;5064402;28;20170;-78
2023/02/22 10:20:46;;;;;;;21.27;12.17;;;11.10;99.90;;;;;;5077150;28;20169;-79
2023/02/22 10:23:23;;;;;;;17.17;12.10;;;11.10;99.90;;;;;;5095389;28;20155;-78
2023/02/22 10:26:13;;;;;;;19.63;12.63;;;11.10;99.90;;;;;;5095450;28;20666;-78
2023/02/22 10:29:20;;;;;;;23.03;12.30;;;11.40;99.90;;;;;;5093182;28;20187;-78
2023/02/22 10:31:56;;;;;;;18.97;12.87;;;11.50;99.90;;;;;;5076958;28;20164;-79
2023/02/22 10:34:32;;;;;;;27.50;13.50;;;11.50;99.90;;;;;;5076668;28;20154;-79
2023/02/22 10:37:21;;;;;;;18.93;13.50;;;11.80;99.90;;;;;;5075611;28;20622;-80
2023/02/22 10:39:52;;;;;;;20.87;13.80;;;12.20;99.90;;;;;;5055845;28;20248;-79
2023/02/22 10:42:26;;;;;;;21.67;13.50;;;12.50;99.90;;;;;;5056786;28;20692;-77
2023/02/22 10:44:55;;;;;;;21.23;13.03;;;12.60;99.90;;;;;;5072303;28;20220;-78
2023/02/22 10:47:23;;;;;;;20.60;13.80;;;12.60;99.90;;;;;;5075785;28;20178;-78
2023/02/22 10:49:57;;;;;;;21.87;13.40;;;12.60;99.90;;;;;;5075750;28;20216;-78
2023/02/22 10:52:40;;;;;;;19.43;14.20;;;12.40;99.90;;;;;;5076564;28;20169;-79
2023/02/22 10:55:13;;;;;;;20.73;14.43;;;12.20;99.90;;;;;;5094704;28;20566;-78
2023/02/22 10:57:41;;;;;;;22.30;14.17;;;12.50;99.90;;;;;;5093489;28;20156;-79
2023/02/22 11:00:38;;;;;;;20.90;14.00;;;12.50;99.90;;;;;;5075551;28;20170;-76
2023/02/22 11:03:18;;;;;;;21.43;14.17;;;12.40;99.90;;;;;;5063680;28;20189;-76
2023/02/22 11:05:44;;;;;;;20.50;14.67;;;12.40;99.90;;;;;;5094354;28;20214;-76
2023/02/22 11:08:29;;;;;;;20.40;14.63;;;12.50;99.90;;;;;;5086295;28;20192;-76
2023/02/22 11:11:17;;;;;;;23.83;14.57;;;12.60;99.90;;;;;;5074877;28;20187;-75
2023/02/22 11:13:43;;;;;;;26.20;15.33;;;12.70;99.90;;;;;;5076267;28;20524;-76
2023/02/22 11:16:24;;;;;;;23.03;14.97;;;12.60;99.90;;;;;;5075724;28;20172;-76
2023/02/22 11:18:58;;;;;;;25.93;14.40;;;12.60;99.90;;;;;;5075737;28;20325;-77
2023/02/22 11:21:24;;;;;;;26.33;15.40;;;12.50;99.90;;;;;;5093255;28;20182;-75
2023/02/22 11:24:01;;;;;;;23.83;16.27;;;12.30;99.90;;;;;;5075645;28;20167;-75
2023/02/22 11:26:27;;;;;;;21.60;15.50;;;12.30;99.90;;;;;;5075256;28;20629;-76
2023/02/22 11:28:56;;;;;;;33.57;16.53;;;12.10;99.90;;;;;;5093299;28;20227;-77
2023/02/22 11:31:25;;;;;;;26.53;16.47;;;12.00;99.90;;;;;;5075337;28;20177;-76
2023/02/22 11:34:00;;;;;;;27.73;17.23;;;12.10;99.90;;;;;;5093732;28;20316;-75
2023/02/22 11:36:39;;;;;;;24.27;15.77;;;12.10;99.90;;;;;;5074963;28;20244;-77
2023/02/22 11:39:19;;;;;;;23.03;17.13;;;11.90;99.90;;;;;;5074965;28;20547;-76
2023/02/22 11:41:48;;;;;;;25.77;16.80;;;12.10;99.90;;;;;;5075192;28;20241;-75
2023/02/22 11:44:29;;;;;;;26.17;17.23;;;11.90;99.90;;;;;;5075318;28;20171;-75
2023/02/22 11:47:00;;;;;;;24.03;16.70;;;11.90;99.90;;;;;;5075038;28;20398;-75
2023/02/22 11:49:38;;;;;;;26.23;17.60;;;12.20;99.90;;;;;;5074712;28;20192;-75
2023/02/22 11:52:33;;;;;;;26.87;17.27;;;12.00;99.90;;;;;;5075013;28;20644;-76
2023/02/22 11:55:22;;;;;;;28.63;17.93;;;12.40;99.90;;;;;;5094110;28;20536;-75
2023/02/22 11:58:07;;;;;;;27.53;17.60;;;12.60;99.90;;;;;;5074790;28;20641;-75
2023/02/22 12:01:01;;;;;;;28.93;16.33;;;12.70;99.90;;;;;;5074832;28;20202;-75
2023/02/22 12:03:51;;;;;;;26.03;17.33;;;12.60;99.90;;;;;;5074824;28;20161;-76
2023/02/22 12:06:29;;;;;;;24.27;18.33;;;12.60;99.90;;;;;;5074449;28;20165;-76
2023/02/22 12:09:17;;;;;;;26.87;19.37;;;12.50;99.90;;;;;;5074497;28;20203;-77
2023/02/22 12:11:51;;;;;;;28.00;19.23;;;12.90;99.90;;;;;;5074771;28;20197;-76
2023/02/22 12:14:56;;;;;;;27.43;20.23;;;13.20;99.90;;;;;;5074870;28;20204;-76
2023/02/22 12:17:27;;;;;;;31.63;20.27;;;13.50;99.90;;;;;;5089190;28;20189;-76
2023/02/22 12:20:09;;;;;;;33.97;19.43;;;13.50;99.90;;;;;;5081517;28;20534;-75
2023/02/22 12:22:41;;;;;;;30.37;20.90;;;13.60;99.90;;;;;;5074317;28;20192;-75
2023/02/22 12:25:22;;;;;;;28.60;21.00;;;13.40;99.90;;;;;;5074788;28;20169;-75
2023/02/22 12:27:53;;;;;;;28.07;20.77;;;13.10;99.90;;;;;;5092420;28;20666;-76
2023/02/22 12:30:39;;;;;;;30.10;20.70;;;13.30;99.90;;;;;;5092727;28;20185;-75
2023/02/22 12:33:14;;;;;;;29.57;21.87;;;13.10;99.90;;;;;;5074025;28;20169;-75
2023/02/22 12:35:47;;;;;;;30.43;21.87;;;13.10;99.90;;;;;;5074290;28;20574;-76
2023/02/22 12:38:23;;;;;;;31.07;21.70;;;12.60;99.90;;;;;;5088041;28;20166;-77
2023/02/22 12:41:10;;;;;;;32.47;22.60;;;12.60;99.90;;;;;;5071059;28;20181;-76
2023/02/22 12:43:43;;;;;;;33.60;22.20;;;12.80;99.90;;;;;;5084756;28;20181;-76
2023/02/22 12:46:20;;;;;;;33.10;23.17;;;12.70;99.90;;;;;;5092362;28;20162;-78
2023/02/22 12:49:02;;;;;;;33.67;23.23;;;12.70;99.90;;;;;;5092372;28;20572;-78
2023/02/22 12:51:34;;;;;;;37.77;24.23;;;12.70;99.90;;;;;;5092664;28;20535;-79
2023/02/22 12:54:31;;;;;;;33.07;22.37;;;12.90;99.90;;;;;;5074419;28;20705;-79
2023/02/22 12:57:20;;;;;;;35.23;23.13;;;13.30;99.90;;;;;;5072365;28;20170;-78
2023/02/22 12:59:51;;;;;;;36.70;24.30;;;13.40;99.90;;;;;;5080202;28;20577;-79
2023/02/22 13:02:21;;;;;;;33.33;22.23;;;13.50;99.90;;;;;;5092603;28;20166;-78
2023/02/22 13:04:48;;;;;;;35.33;24.33;;;13.60;99.90;;;;;;5091941;28;20174;-78